createdAt,value
2022-08-18T00:02:30.165Z,100052.66
2022-08-18T00:05:00.337Z,100056.19
2022-08-18T00:07:32.303Z,100052.72
2022-08-18T00:10:01.268Z,100058.84
2022-08-18T00:12:39.496Z,100067.53
2022-08-18T00:15:09.550Z,100065.00
2022-08-18T00:17:38.018Z,100064.19
2022-08-18T00:20:09.196Z,100072.91
2022-08-18T00:22:36.995Z,100091.22
2022-08-18T00:25:04.769Z,100067.69
2022-08-18T00:27:32.482Z,100081.66
2022-08-18T00:30:02.508Z,100081.66
2022-08-18T00:32:38.823Z,100060.84
2022-08-18T00:35:28.774Z,100068.69
2022-08-18T00:37:59.848Z,100073.91
2022-08-18T00:40:40.665Z,100069.56
2022-08-18T00:43:14.432Z,100080.91
2022-08-18T00:45:43.795Z,100073.06
2022-08-18T00:48:13.732Z,100069.59
2022-08-18T00:50:54.230Z,100053.97
2022-08-18T00:53:42.216Z,100070.50
2022-08-18T00:56:25.543Z,100086.22
2022-08-18T00:58:59.101Z,100078.41
2022-08-18T01:01:30.854Z,100097.59
2022-08-18T01:04:09.181Z,100101.09
2022-08-18T01:07:04.692Z,100089.78
2022-08-18T01:09:34.039Z,100085.44
2022-08-18T01:12:01.731Z,100081.13
2022-08-18T01:14:51.675Z,100079.38
2022-08-18T01:17:37.848Z,100075.88
2022-08-18T01:20:24.910Z,100077.63
2022-08-18T01:22:58.172Z,100070.66
2022-08-18T01:25:44.385Z,100063.72
2022-08-18T01:28:11.887Z,100059.38
2022-08-18T01:30:58.477Z,100071.56
2022-08-18T01:33:32.622Z,100063.78
2022-08-18T01:36:04.656Z,100070.75
2022-08-18T01:38:32.328Z,100055.06
2022-08-18T01:41:26.492Z,100061.16
2022-08-18T01:43:49.722Z,100079.44
2022-08-18T01:46:21.477Z,100075.09
2022-08-18T01:48:49.441Z,100066.41
2022-08-18T01:51:19.808Z,100089.91
2022-08-18T01:53:48.796Z,100070.81
2022-08-18T01:56:17.882Z,100076.91
2022-08-18T01:58:48.172Z,100092.56
2022-08-18T02:01:16.550Z,100091.69
2022-08-18T02:03:49.325Z,100093.44
2022-08-18T02:06:32.385Z,100092.53
2022-08-18T02:09:01.397Z,100091.72
2022-08-18T02:11:29.004Z,100096.06
2022-08-18T02:13:56.559Z,100081.28
2022-08-18T02:16:24.540Z,100102.16
2022-08-18T02:19:12.530Z,100090.03
2022-08-18T02:21:40.207Z,100102.19
2022-08-18T02:24:11.032Z,100105.69
2022-08-18T02:26:38.716Z,100109.16
2022-08-18T02:29:06.224Z,100098.69
2022-08-18T02:31:33.880Z,100111.75
2022-08-18T02:34:07.312Z,100099.59
2022-08-18T02:36:37.267Z,100125.72
2022-08-18T02:39:04.989Z,100131.81
2022-08-18T02:41:33.209Z,100110.00
2022-08-18T02:44:01.131Z,100129.22
2022-08-18T02:46:31.119Z,100130.94
2022-08-18T02:49:01.703Z,100116.16
2022-08-18T02:51:29.410Z,100126.59
2022-08-18T02:54:00.226Z,100126.59
2022-08-18T02:56:41.937Z,100120.47
2022-08-18T02:59:17.390Z,100128.31
2022-08-18T03:01:47.828Z,100123.97
2022-08-18T03:04:24.034Z,100131.81
2022-08-18T03:06:56.409Z,100127.44
2022-08-18T03:09:24.616Z,100129.16
2022-08-18T03:11:53.641Z,100130.03
2022-08-18T03:14:21.529Z,100125.69
2022-08-18T03:16:54.072Z,100110.00
2022-08-18T03:19:30.880Z,100110.84
2022-08-18T03:22:03.378Z,100130.00
2022-08-18T03:24:32.711Z,100120.38
2022-08-18T03:27:08.020Z,100106.47
2022-08-18T03:29:36.079Z,100113.44
2022-08-18T03:32:06.775Z,100121.25
2022-08-18T03:34:35.032Z,100121.25
2022-08-18T03:37:02.872Z,100116.00
2022-08-18T03:39:30.456Z,100123.81
2022-08-18T03:42:01.611Z,100115.94
2022-08-18T03:44:32.455Z,100102.00
2022-08-18T03:47:03.263Z,100101.94
2022-08-18T03:49:33.759Z,100112.44
2022-08-18T03:52:03.985Z,100116.78
2022-08-18T03:54:32.600Z,100116.75
2022-08-18T03:57:00.988Z,100129.00
2022-08-18T03:59:32.041Z,100123.75
2022-08-18T04:02:02.623Z,100102.03
2022-08-18T04:04:30.436Z,100121.13
2022-08-18T04:07:01.192Z,100112.44
2022-08-18T04:09:30.873Z,100125.47
2022-08-18T04:12:02.896Z,100120.22
2022-08-18T04:14:32.787Z,100120.19
2022-08-18T04:17:00.544Z,100126.25
2022-08-18T04:19:28.444Z,100132.25
2022-08-18T04:21:57.826Z,100128.69
2022-08-18T04:24:28.243Z,100121.63
2022-08-18T04:27:01.709Z,100125.06
2022-08-18T04:29:29.505Z,100119.78
2022-08-18T04:31:57.243Z,100123.22
2022-08-18T04:34:27.734Z,100116.06
2022-08-18T04:36:55.403Z,100126.41
2022-08-18T04:39:24.130Z,100132.38
2022-08-18T04:41:54.453Z,100135.78
2022-08-18T04:44:22.369Z,100127.81
2022-08-18T04:46:52.305Z,100134.63
2022-08-18T04:49:24.116Z,100124.09
2022-08-18T04:52:36.099Z,100128.28
2022-08-18T04:55:02.581Z,100135.91
2022-08-18T04:57:35.042Z,100128.88
2022-08-18T05:00:06.241Z,100141.16
2022-08-18T05:02:34.010Z,100131.56
2022-08-18T05:05:03.542Z,100133.31
2022-08-18T05:07:31.547Z,100138.44
2022-08-18T05:09:59.998Z,100129.53
2022-08-18T05:12:31.361Z,100136.34
2022-08-18T05:14:58.986Z,100137.94
2022-08-18T05:17:30.450Z,100127.50
2022-08-18T05:20:01.046Z,100128.34
2022-08-18T05:22:39.228Z,100137.78
2022-08-18T05:25:09.420Z,100135.91
2022-08-18T05:27:40.660Z,100135.53
2022-08-18T05:30:09.264Z,100139.66
2022-08-18T05:32:48.478Z,100133.13
2022-08-18T05:35:32.817Z,100129.25
2022-08-18T05:38:29.732Z,100124.56
2022-08-18T05:41:14.136Z,100126.88
2022-08-18T05:43:52.004Z,100126.81
2022-08-18T05:46:26.443Z,100129.19
2022-08-18T05:48:54.102Z,100129.88
2022-08-18T05:51:29.528Z,100139.34
2022-08-18T05:54:15.995Z,100133.97
2022-08-18T05:56:48.127Z,100140.78
2022-08-18T05:59:26.523Z,100138.72
2022-08-18T06:02:16.407Z,100141.13
2022-08-18T06:04:48.098Z,100138.25
2022-08-18T06:07:27.759Z,100137.91
2022-08-18T06:10:06.938Z,100135.75
2022-08-18T06:12:47.144Z,100153.19
2022-08-18T06:15:34.675Z,100149.34
2022-08-18T06:18:28.503Z,100152.63
2022-08-18T06:21:08.083Z,100146.09
2022-08-18T06:23:52.226Z,100144.66
2022-08-18T06:26:26.209Z,100148.34
2022-08-18T06:29:15.301Z,100144.97
2022-08-18T06:31:57.744Z,100148.94
2022-08-18T06:34:30.451Z,100140.78
2022-08-18T06:37:33.429Z,100139.81
2022-08-18T06:40:02.344Z,100156.31
2022-08-18T06:42:32.746Z,100156.63
2022-08-18T06:45:12.820Z,100161.97
2022-08-18T06:48:20.535Z,100158.22
2022-08-18T06:50:53.450Z,100166.53
2022-08-18T06:53:27.607Z,100155.00
2022-08-18T06:55:56.543Z,100158.63
2022-08-18T06:58:31.150Z,100161.06
2022-08-18T07:01:07.899Z,100153.00
2022-08-18T07:03:44.107Z,100157.03
2022-08-18T07:06:23.560Z,100160.88
2022-08-18T07:08:54.055Z,100167.28
2022-08-18T07:11:24.556Z,100158.75
2022-08-18T07:14:15.168Z,100170.06
2022-08-18T07:17:00.317Z,100164.59
2022-08-18T07:19:32.447Z,100170.53
2022-08-18T07:22:05.442Z,100168.19
2022-08-18T07:24:39.496Z,100158.88
2022-08-18T07:27:10.910Z,100159.63
2022-08-18T07:29:59.393Z,100158.28
2022-08-18T07:32:35.546Z,100160.56
2022-08-18T07:35:07.265Z,100164.81
2022-08-18T07:37:53.398Z,100160.41
2022-08-18T07:40:42.139Z,100157.63
2022-08-18T07:43:27.357Z,100168.34
2022-08-18T07:46:10.322Z,100158.28
2022-08-18T07:48:41.122Z,100155.50
2022-08-18T07:51:18.848Z,100168.19
2022-08-18T07:54:49.879Z,100164.97
2022-08-18T07:57:20.451Z,100150.41
2022-08-18T08:00:10.485Z,100161.91
2022-08-18T08:02:56.402Z,100158.38
2022-08-18T08:06:02.606Z,100162.00
2022-08-18T08:08:39.953Z,100154.69
2022-08-18T08:11:39.377Z,100158.00
2022-08-18T08:14:26.718Z,100158.81
2022-08-18T08:17:05.192Z,100152.72
2022-08-18T08:20:09.687Z,100160.59
2022-08-18T08:23:05.319Z,100153.84
2022-08-18T08:25:54.344Z,100147.41
2022-08-18T08:28:55.905Z,100155.25
2022-08-18T08:31:55.210Z,100141.44
2022-08-18T08:34:31.564Z,100143.63
2022-08-18T08:37:03.942Z,100155.47
2022-08-18T08:39:43.053Z,100135.56
2022-08-18T08:42:31.652Z,100137.19
2022-08-18T08:45:13.681Z,100121.16
2022-08-18T08:47:53.664Z,100134.59
2022-08-18T08:50:26.765Z,100135.50
2022-08-18T08:53:01.107Z,100133.66
2022-08-18T08:55:32.634Z,100130.25
2022-08-18T08:58:17.280Z,100131.31
2022-08-18T09:00:46.292Z,100140.69
2022-08-18T09:03:30.539Z,100118.53
2022-08-18T09:06:49.760Z,100130.41
2022-08-18T09:09:26.471Z,100128.13
2022-08-18T09:12:02.291Z,100125.09
2022-08-18T09:14:41.655Z,100130.41
2022-08-18T09:17:12.025Z,100128.63
2022-08-18T09:20:28.316Z,100133.13
2022-08-18T09:23:33.018Z,100134.69
2022-08-18T09:26:25.575Z,100140.13
2022-08-18T09:28:56.621Z,100146.66
2022-08-18T09:31:25.916Z,100125.91
2022-08-18T09:34:09.750Z,100123.75
2022-08-18T09:37:25.805Z,100135.91
2022-08-18T09:41:02.551Z,100138.63
2022-08-18T09:43:55.079Z,100152.53
2022-08-18T09:46:41.545Z,100127.53
2022-08-18T09:49:23.335Z,100135.59
2022-08-18T09:51:57.569Z,100130.88
2022-08-18T09:54:33.610Z,100141.16
2022-08-18T09:57:05.257Z,100137.16
2022-08-18T09:59:34.435Z,100134.78
2022-08-18T10:02:06.447Z,100141.13
2022-08-18T10:04:51.261Z,100133.84
2022-08-18T10:07:43.460Z,100138.06
2022-08-18T10:10:59.419Z,100141.94
2022-08-18T10:13:26.286Z,100133.09
2022-08-18T10:16:25.928Z,100127.88
2022-08-18T10:19:03.890Z,100121.22
2022-08-18T10:22:02.041Z,100145.44
2022-08-18T10:27:44.688Z,100131.63
2022-08-18T10:30:36.540Z,100135.78
2022-08-18T10:33:54.624Z,100120.94
2022-08-18T10:36:46.239Z,100125.91
2022-08-18T10:39:18.767Z,100135.06
2022-08-18T10:42:02.255Z,100130.41
2022-08-18T10:44:34.762Z,100129.91
2022-08-18T10:47:03.601Z,100121.19
2022-08-18T10:49:46.683Z,100115.44
2022-08-18T10:52:14.728Z,100124.25
2022-08-18T10:55:11.360Z,100119.16
2022-08-18T10:57:51.110Z,100117.97
2022-08-18T11:00:21.736Z,100118.63
2022-08-18T11:03:30.018Z,100127.09
2022-08-18T11:05:47.234Z,100120.22
2022-08-18T11:08:20.308Z,100111.91
2022-08-18T11:11:27.295Z,100105.69
2022-08-18T11:13:41.072Z,100110.53
2022-08-18T11:16:42.385Z,100103.03
2022-08-18T11:19:13.256Z,100114.84
2022-08-18T11:21:51.417Z,100103.25
2022-08-18T11:24:26.649Z,100115.00
2022-08-18T11:26:58.613Z,100118.13
2022-08-18T11:29:40.295Z,100115.88
2022-08-18T11:32:22.374Z,100097.25
2022-08-18T11:34:59.649Z,100113.47
2022-08-18T11:37:48.483Z,100116.41
2022-08-18T11:43:21.655Z,100107.78
2022-08-18T11:46:04.497Z,100101.91
2022-08-18T11:48:52.225Z,100107.94
2022-08-18T11:51:32.408Z,100090.63
2022-08-18T11:54:05.173Z,100105.63
2022-08-18T11:56:37.607Z,100108.28
2022-08-18T11:59:06.929Z,100112.72
2022-08-18T12:01:54.706Z,100121.41
2022-08-18T12:04:53.351Z,100101.03
2022-08-18T12:07:34.336Z,100097.44
2022-08-18T12:10:29.362Z,100104.06
2022-08-18T12:13:00.815Z,100099.06
2022-08-18T12:15:43.532Z,100096.16
2022-08-18T12:18:26.031Z,100096.88
2022-08-18T12:20:59.309Z,100101.50
2022-08-18T12:23:28.096Z,100092.25
2022-08-18T12:26:27.390Z,100092.88
2022-08-18T12:29:01.595Z,100098.41
2022-08-18T12:34:24.942Z,100100.78
2022-08-18T12:37:01.207Z,100097.31
2022-08-18T12:40:06.352Z,100106.25
2022-08-18T12:42:34.977Z,100095.44
2022-08-18T12:45:03.356Z,100090.47
2022-08-18T12:47:53.444Z,100092.59
2022-08-18T12:50:31.202Z,100094.88
2022-08-18T12:53:02.113Z,100097.75
2022-08-18T12:55:35.342Z,100094.31
2022-08-18T12:58:27.664Z,100101.56
2022-08-18T13:00:55.678Z,100081.78
2022-08-18T13:03:24.550Z,100084.44
2022-08-18T13:05:55.027Z,100085.66
2022-08-18T13:08:38.135Z,100071.31
2022-08-18T13:11:21.657Z,100086.03
2022-08-18T13:13:55.105Z,100079.78
2022-08-18T13:16:53.353Z,100077.47
2022-08-18T13:19:22.280Z,100082.88
2022-08-18T13:21:49.793Z,100074.47
2022-08-18T13:24:21.923Z,100071.84
2022-08-18T13:26:51.696Z,100071.50
2022-08-18T13:29:19.918Z,100090.59
2022-08-18T13:31:57.819Z,100078.72
2022-08-18T13:34:30.129Z,100070.81
2022-08-18T13:36:58.307Z,100078.34
2022-08-18T13:39:33.878Z,100081.75
2022-08-18T13:42:22.453Z,100072.88
2022-08-18T13:44:53.463Z,100072.25
2022-08-18T13:47:22.643Z,100066.69
2022-08-18T13:49:58.222Z,100073.88
2022-08-18T13:52:35.653Z,100088.25
2022-08-18T13:55:08.030Z,100080.56
2022-08-18T13:57:39.078Z,100083.94
2022-08-18T14:00:18.267Z,100090.38
2022-08-18T14:02:53.800Z,100081.19
2022-08-18T14:05:22.275Z,100077.59
2022-08-18T14:08:19.052Z,100082.31
2022-08-18T14:10:54.313Z,100087.03
2022-08-18T14:13:25.007Z,100098.03
2022-08-18T14:15:55.882Z,100082.66
2022-08-18T14:18:28.941Z,100080.50
2022-08-18T14:21:23.058Z,100084.28
2022-08-18T14:24:10.325Z,100102.19
2022-08-18T14:26:51.259Z,100084.09
2022-08-18T14:29:45.624Z,100085.97
2022-08-18T14:32:07.573Z,100089.53
2022-08-18T14:34:35.730Z,100101.00
2022-08-18T14:37:04.098Z,100100.28
2022-08-18T14:39:31.751Z,100097.84
2022-08-18T14:41:59.767Z,100099.00
2022-08-18T14:44:32.606Z,100098.38
2022-08-18T14:47:00.321Z,100097.81
2022-08-18T14:49:29.472Z,100091.06
2022-08-18T14:51:59.602Z,100091.84
2022-08-18T14:54:28.716Z,100091.06
2022-08-18T14:56:59.955Z,100098.25
2022-08-18T14:59:28.825Z,100097.47
2022-08-18T15:01:58.524Z,100094.81
2022-08-18T15:04:27.802Z,100090.50
2022-08-18T15:06:56.790Z,100093.31
2022-08-18T15:09:27.175Z,100098.69
2022-08-18T15:11:58.482Z,100096.16
2022-08-18T15:14:32.913Z,100094.50
2022-08-18T15:17:12.030Z,100090.38
2022-08-18T15:20:00.556Z,100094.75
2022-08-18T15:22:50.099Z,100091.38
2022-08-18T15:25:36.389Z,100097.59
2022-08-18T15:28:04.735Z,100111.78
2022-08-18T15:30:32.568Z,100098.88
2022-08-18T15:33:03.224Z,100102.53
2022-08-18T15:35:32.579Z,100106.09
2022-08-18T15:38:00.905Z,100109.84
2022-08-18T15:40:41.350Z,100116.78
2022-08-18T15:43:11.128Z,100091.56
2022-08-18T15:45:56.294Z,100099.44
2022-08-18T15:48:26.612Z,100108.97
2022-08-18T15:50:54.516Z,100111.03
2022-08-18T15:53:25.584Z,100113.78
2022-08-18T15:56:04.196Z,100109.53
2022-08-18T15:58:32.159Z,100117.56
2022-08-18T16:00:59.734Z,100111.53
2022-08-18T16:03:28.271Z,100102.88
2022-08-18T16:05:56.596Z,100110.13
2022-08-18T16:08:25.769Z,100108.38
2022-08-18T16:10:54.768Z,100106.78
2022-08-18T16:13:26.378Z,100108.56
2022-08-18T16:15:53.941Z,100112.16
2022-08-18T16:18:21.534Z,100114.94
2022-08-18T16:20:50.671Z,100114.25
2022-08-18T16:23:20.830Z,100116.94
2022-08-18T16:25:50.136Z,100124.97
2022-08-18T16:28:17.727Z,100117.28
2022-08-18T16:30:46.858Z,100129.59
2022-08-18T16:33:14.408Z,100126.16
2022-08-18T16:35:42.415Z,100131.63
2022-08-18T16:38:13.014Z,100115.03
2022-08-18T16:40:41.359Z,100118.69
2022-08-18T16:43:10.530Z,100130.16
2022-08-18T16:45:38.705Z,100140.81
2022-08-18T16:48:16.616Z,100127.75
2022-08-18T16:50:45.439Z,100135.75
2022-08-18T16:53:13.123Z,100132.38
2022-08-18T16:55:43.361Z,100131.63
2022-08-18T16:58:29.271Z,100138.78
2022-08-18T17:01:18.977Z,100146.75
2022-08-18T17:04:13.744Z,100144.25
2022-08-18T17:06:48.179Z,100141.81
2022-08-18T17:09:22.454Z,100144.41
2022-08-18T17:11:52.358Z,100147.22
2022-08-18T17:14:26.687Z,100161.19
2022-08-18T17:16:56.245Z,100159.47
2022-08-18T17:19:26.299Z,100152.47
2022-08-18T17:21:59.262Z,100163.81
2022-08-18T17:24:31.911Z,100163.84
2022-08-18T17:27:27.199Z,100162.06
2022-08-18T17:30:04.757Z,100164.78
2022-08-18T17:32:48.153Z,100171.84
2022-08-18T17:35:29.052Z,100158.13
2022-08-18T17:38:15.683Z,100167.00
2022-08-18T17:40:48.046Z,100177.75
2022-08-18T17:43:18.378Z,100188.38
2022-08-18T17:45:59.051Z,100184.94
2022-08-18T17:48:42.390Z,100184.25
2022-08-18T17:51:34.142Z,100184.50
2022-08-18T17:54:17.448Z,100192.41
2022-08-18T17:57:01.560Z,100187.41
2022-08-18T17:59:45.671Z,100194.53
2022-08-18T18:02:30.011Z,100181.63
2022-08-18T18:05:03.119Z,100196.56
2022-08-18T18:07:38.517Z,100185.44
2022-08-18T18:10:12.490Z,100186.41
2022-08-18T18:12:40.937Z,100187.38
2022-08-18T18:15:12.164Z,100190.09
2022-08-18T18:17:42.474Z,100191.16
2022-08-18T18:20:32.926Z,100191.13
2022-08-18T18:23:21.251Z,100192.94
2022-08-18T18:25:50.391Z,100196.63
2022-08-18T18:28:44.024Z,100200.13
2022-08-18T18:31:29.334Z,100183.69
2022-08-18T18:34:23.013Z,100202.16
2022-08-18T18:36:52.148Z,100197.00
2022-08-18T18:39:33.788Z,100196.25
2022-08-18T18:42:24.011Z,100210.19
2022-08-18T18:44:55.019Z,100203.41
2022-08-18T18:47:44.033Z,100210.31
2022-08-18T18:50:18.596Z,100203.53
2022-08-18T18:52:57.153Z,100213.16
2022-08-18T18:55:28.222Z,100221.09
2022-08-18T18:58:27.478Z,100203.66
2022-08-18T19:01:00.324Z,100209.00
2022-08-18T19:03:33.867Z,100210.75
2022-08-18T19:06:22.610Z,100202.06
2022-08-18T19:09:11.229Z,100212.53
2022-08-18T19:12:06.493Z,100212.59
2022-08-18T19:14:39.502Z,100213.53
2022-08-18T19:17:36.223Z,100218.78
2022-08-18T19:20:21.007Z,100210.97
2022-08-18T19:23:18.281Z,100214.44
2022-08-18T19:26:02.544Z,100209.38
2022-08-18T19:29:08.926Z,100223.31
2022-08-18T19:31:40.114Z,100222.50
2022-08-18T19:34:22.901Z,100226.00
2022-08-18T19:37:09.974Z,100224.28
2022-08-18T19:39:42.812Z,100232.16
2022-08-18T19:42:24.822Z,100241.78
2022-08-18T19:45:15.779Z,100239.28
2022-08-18T19:47:49.653Z,100238.47
2022-08-18T19:50:42.547Z,100239.44
2022-08-18T19:53:52.297Z,100254.25
2022-08-18T19:56:32.918Z,100256.91
2022-08-18T19:59:18.555Z,100261.38
2022-08-18T20:01:52.222Z,100247.41
2022-08-18T20:04:43.619Z,100256.09
2022-08-18T20:07:16.867Z,100263.16
2022-08-18T20:10:01.865Z,100260.47
2022-08-18T20:12:56.819Z,100263.13
2022-08-18T20:15:27.112Z,100258.06
2022-08-18T20:17:57.500Z,100265.91
2022-08-18T20:20:40.196Z,100265.13
2022-08-18T20:23:34.190Z,100279.06
2022-08-18T20:26:01.891Z,100278.28
2022-08-18T20:28:36.308Z,100281.84
2022-08-18T20:31:13.838Z,100292.31
2022-08-18T20:33:46.952Z,100296.75
2022-08-18T20:36:29.187Z,100299.38
2022-08-18T20:39:02.191Z,100296.81
2022-08-18T20:41:30.153Z,100298.59
2022-08-18T20:44:09.693Z,100304.69
2022-08-18T20:47:14.633Z,100311.69
2022-08-18T20:50:23.579Z,100310.03
2022-08-18T20:53:12.719Z,100303.13
2022-08-18T20:56:32.268Z,100316.28
2022-08-18T20:59:08.714Z,100321.56
2022-08-18T21:01:38.707Z,100313.84
2022-08-18T21:04:08.823Z,100326.06
2022-08-18T21:06:42.189Z,100334.84
2022-08-18T21:09:10.719Z,100324.44
2022-08-18T21:11:45.523Z,100334.06
2022-08-18T21:14:23.077Z,100338.50
2022-08-18T21:16:50.602Z,100335.91
2022-08-18T21:19:27.954Z,100341.16
2022-08-18T21:22:04.463Z,100337.69
2022-08-18T21:24:34.634Z,100324.69
2022-08-18T21:27:27.508Z,100340.38
2022-08-18T21:29:59.048Z,100343.00
2022-08-18T21:32:49.398Z,100345.63
2022-08-18T21:35:23.387Z,100344.78
2022-08-18T21:38:14.692Z,100344.78
2022-08-18T21:40:46.949Z,100342.22
2022-08-18T21:43:36.135Z,100347.47
2022-08-18T21:46:04.494Z,100358.88
2022-08-18T21:48:34.469Z,100360.63
2022-08-18T21:51:04.029Z,100351.91
2022-08-18T21:53:33.925Z,100343.22
2022-08-18T21:56:04.541Z,100357.19
2022-08-18T21:58:42.376Z,100349.34
2022-08-18T22:01:31.803Z,100364.19
2022-08-18T22:04:01.999Z,100365.09
2022-08-18T22:06:36.195Z,100361.56
2022-08-18T22:09:30.286Z,100370.31
2022-08-18T22:12:37.784Z,100361.59
2022-08-18T22:15:16.039Z,100364.22
2022-08-18T22:18:00.499Z,100370.34
2022-08-18T22:20:47.417Z,100358.16
2022-08-18T22:23:33.340Z,100360.78
2022-08-18T22:26:17.550Z,100360.78
2022-08-18T22:29:02.247Z,100365.16
2022-08-18T22:31:56.007Z,100360.78
2022-08-18T22:34:29.113Z,100364.28
2022-08-18T22:37:06.686Z,100371.28
2022-08-18T22:39:37.888Z,100365.13
2022-08-18T22:42:09.728Z,100368.63
2022-08-18T22:44:38.063Z,100364.25
2022-08-18T22:47:13.168Z,100376.44
2022-08-18T22:49:40.853Z,100362.47
2022-08-18T22:52:19.060Z,100372.03
2022-08-18T22:54:46.770Z,100362.47
2022-08-18T22:57:23.603Z,100368.53
2022-08-18T22:59:51.578Z,100364.16
2022-08-18T23:02:22.074Z,100358.06
2022-08-18T23:04:50.206Z,100353.69
2022-08-18T23:07:24.852Z,100360.66
2022-08-18T23:09:54.848Z,100363.22
2022-08-18T23:12:22.447Z,100355.38
2022-08-18T23:14:50.060Z,100371.09
2022-08-18T23:17:17.921Z,100363.25
2022-08-18T23:19:47.078Z,100378.97
2022-08-18T23:22:15.015Z,100367.63
2022-08-18T23:24:42.956Z,100369.34
2022-08-18T23:27:10.662Z,100383.28
2022-08-18T23:29:41.278Z,100375.41
2022-08-18T23:32:09.023Z,100383.28
2022-08-18T23:34:36.967Z,100379.75
2022-08-18T23:37:05.186Z,100384.16
2022-08-18T23:39:34.954Z,100389.41
2022-08-18T23:42:06.781Z,100399.88
2022-08-18T23:44:34.533Z,100390.25
2022-08-18T23:47:02.437Z,100393.75
2022-08-18T23:49:30.535Z,100388.50
2022-08-18T23:51:59.729Z,100409.47
2022-08-18T23:54:33.366Z,100406.84
2022-08-18T23:57:01.507Z,100399.91
2022-08-18T23:59:29.753Z,100398.16
